sensor_id;sensor_type;location;lat;lon;timestamp;temperature;humidity
5806;DHT22;2929;50.810;8.342;2022-11-03T00:01:11;4.70;99.90
5806;DHT22;2929;50.810;8.342;2022-11-03T00:03:38;4.60;99.90
5806;DHT22;2929;50.810;8.342;2022-11-03T00:06:06;4.50;99.90
5806;DHT22;2929;50.810;8.342;2022-11-03T00:08:36;4.50;99.90
5806;DHT22;2929;50.810;8.342;2022-11-03T00:11:06;4.50;99.90
5806;DHT22;2929;50.810;8.342;2022-11-03T00:13:34;4.50;99.90
5806;DHT22;2929;50.810;8.342;2022-11-03T00:16:01;4.50;99.90
5806;DHT22;2929;50.810;8.342;2022-11-03T00:18:28;4.50;99.90
5806;DHT22;2929;50.810;8.342;2022-11-03T00:20:57;4.50;99.90
5806;DHT22;2929;50.810;8.342;2022-11-03T00:23:26;4.50;99.90
5806;DHT22;2929;50.810;8.342;2022-11-03T00:26:01;4.50;99.90
5806;DHT22;2929;50.810;8.342;2022-11-03T00:28:30;4.50;99.90
5806;DHT22;2929;50.810;8.342;2022-11-03T00:30:58;4.50;99.90
5806;DHT22;2929;50.810;8.342;2022-11-03T00:33:26;4.50;99.90
5806;DHT22;2929;50.810;8.342;2022-11-03T00:35:56;4.50;99.90
5806;DHT22;2929;50.810;8.342;2022-11-03T00:38:23;4.40;99.90
5806;DHT22;2929;50.810;8.342;2022-11-03T00:40:55;4.40;99.90
5806;DHT22;2929;50.810;8.342;2022-11-03T00:43:23;4.40;99.90
5806;DHT22;2929;50.810;8.342;2022-11-03T00:45:50;4.40;99.90
5806;DHT22;2929;50.810;8.342;2022-11-03T00:48:18;4.30;99.90
5806;DHT22;2929;50.810;8.342;2022-11-03T00:51:02;4.30;99.90
5806;DHT22;2929;50.810;8.342;2022-11-03T00:53:31;4.10;99.90
5806;DHT22;2929;50.810;8.342;2022-11-03T00:56:00;4.10;99.90
5806;DHT22;2929;50.810;8.342;2022-11-03T00:58:27;4.00;99.90
5806;DHT22;2929;50.810;8.342;2022-11-03T01:00:59;4.00;99.90
5806;DHT22;2929;50.810;8.342;2022-11-03T01:03:27;4.00;99.90
5806;DHT22;2929;50.810;8.342;2022-11-03T01:05:54;4.00;99.90
5806;DHT22;2929;50.810;8.342;2022-11-03T01:08:47;4.00;99.90
5806;DHT22;2929;50.810;8.342;2022-11-03T01:11:18;4.10;99.90
5806;DHT22;2929;50.810;8.342;2022-11-03T01:14:04;4.10;99.90
5806;DHT22;2929;50.810;8.342;2022-11-03T01:16:31;4.00;99.90
5806;DHT22;2929;50.810;8.342;2022-11-03T01:18:58;4.00;99.90
5806;DHT22;2929;50.810;8.342;2022-11-03T01:21:25;4.10;99.90
5806;DHT22;2929;50.810;8.342;2022-11-03T01:23:53;4.10;99.90
5806;DHT22;2929;50.810;8.342;2022-11-03T01:26:21;4.20;99.90
5806;DHT22;2929;50.810;8.342;2022-11-03T01:28:48;4.30;99.90
5806;DHT22;2929;50.810;8.342;2022-11-03T01:31:17;4.30;99.90
5806;DHT22;2929;50.810;8.342;2022-11-03T01:33:45;4.40;99.90
5806;DHT22;2929;50.810;8.342;2022-11-03T01:36:14;4.40;99.90
5806;DHT22;2929;50.810;8.342;2022-11-03T01:38:41;4.40;99.90
5806;DHT22;2929;50.810;8.342;2022-11-03T01:41:12;4.40;99.90
5806;DHT22;2929;50.810;8.342;2022-11-03T01:43:41;4.40;99.90
5806;DHT22;2929;50.810;8.342;2022-11-03T01:46:14;4.60;99.90
5806;DHT22;2929;50.810;8.342;2022-11-03T01:48:46;4.50;99.90
5806;DHT22;2929;50.810;8.342;2022-11-03T01:51:18;4.50;99.90
5806;DHT22;2929;50.810;8.342;2022-11-03T01:53:50;4.50;99.90
5806;DHT22;2929;50.810;8.342;2022-11-03T01:56:19;4.50;99.90
5806;DHT22;2929;50.810;8.342;2022-11-03T01:58:50;4.40;99.90
5806;DHT22;2929;50.810;8.342;2022-11-03T02:01:20;4.40;99.90
5806;DHT22;2929;50.810;8.342;2022-11-03T02:03:50;4.40;99.90
5806;DHT22;2929;50.810;8.342;2022-11-03T02:06:18;4.50;99.90
5806;DHT22;2929;50.810;8.342;2022-11-03T02:08:50;4.50;99.90
5806;DHT22;2929;50.810;8.342;2022-11-03T02:11:18;4.50;99.90
5806;DHT22;2929;50.810;8.342;2022-11-03T02:14:03;4.60;99.90
5806;DHT22;2929;50.810;8.342;2022-11-03T02:16:31;4.50;99.90
5806;DHT22;2929;50.810;8.342;2022-11-03T02:18:59;4.40;99.90
5806;DHT22;2929;50.810;8.342;2022-11-03T02:21:30;4.40;99.90
5806;DHT22;2929;50.810;8.342;2022-11-03T02:24:03;4.30;99.90
5806;DHT22;2929;50.810;8.342;2022-11-03T02:26:35;4.30;99.90
5806;DHT22;2929;50.810;8.342;2022-11-03T02:29:02;4.20;99.90
5806;DHT22;2929;50.810;8.342;2022-11-03T02:34:38;4.20;99.90
5806;DHT22;2929;50.810;8.342;2022-11-03T02:37:10;4.10;99.90
5806;DHT22;2929;50.810;8.342;2022-11-03T02:39:40;4.00;99.90
5806;DHT22;2929;50.810;8.342;2022-11-03T02:42:11;4.00;99.90
5806;DHT22;2929;50.810;8.342;2022-11-03T02:44:41;3.90;99.90
5806;DHT22;2929;50.810;8.342;2022-11-03T02:47:10;3.90;99.90
5806;DHT22;2929;50.810;8.342;2022-11-03T02:49:38;3.80;99.90
5806;DHT22;2929;50.810;8.342;2022-11-03T02:52:06;3.80;99.90
5806;DHT22;2929;50.810;8.342;2022-11-03T02:54:36;3.70;99.90
5806;DHT22;2929;50.810;8.342;2022-11-03T02:57:08;3.60;99.90
5806;DHT22;2929;50.810;8.342;2022-11-03T02:59:42;3.60;99.90
5806;DHT22;2929;50.810;8.342;2022-11-03T03:02:16;3.70;99.90
5806;DHT22;2929;50.810;8.342;2022-11-03T03:04:47;3.70;99.90
5806;DHT22;2929;50.810;8.342;2022-11-03T03:07:18;3.70;99.90
5806;DHT22;2929;50.810;8.342;2022-11-03T03:09:52;3.80;99.90
5806;DHT22;2929;50.810;8.342;2022-11-03T03:12:25;3.80;99.90
5806;DHT22;2929;50.810;8.342;2022-11-03T03:14:56;3.90;99.90
5806;DHT22;2929;50.810;8.342;2022-11-03T03:17:29;3.90;99.90
5806;DHT22;2929;50.810;8.342;2022-11-03T03:20:02;4.00;99.90
5806;DHT22;2929;50.810;8.342;2022-11-03T03:22:33;4.00;99.90
5806;DHT22;2929;50.810;8.342;2022-11-03T03:25:09;4.00;99.90
5806;DHT22;2929;50.810;8.342;2022-11-03T03:27:40;4.10;99.90
5806;DHT22;2929;50.810;8.342;2022-11-03T03:30:11;4.10;99.90
5806;DHT22;2929;50.810;8.342;2022-11-03T03:32:42;4.10;99.90
5806;DHT22;2929;50.810;8.342;2022-11-03T03:35:13;4.10;99.90
5806;DHT22;2929;50.810;8.342;2022-11-03T03:37:45;4.00;99.90
5806;DHT22;2929;50.810;8.342;2022-11-03T03:40:16;3.90;99.90
5806;DHT22;2929;50.810;8.342;2022-11-03T03:42:46;3.80;99.90
5806;DHT22;2929;50.810;8.342;2022-11-03T03:45:16;3.80;99.90
5806;DHT22;2929;50.810;8.342;2022-11-03T03:47:44;3.70;99.90
5806;DHT22;2929;50.810;8.342;2022-11-03T03:50:12;3.70;99.90
5806;DHT22;2929;50.810;8.342;2022-11-03T03:52:39;3.60;99.90
5806;DHT22;2929;50.810;8.342;2022-11-03T03:55:13;3.60;99.90
5806;DHT22;2929;50.810;8.342;2022-11-03T03:57:41;3.60;99.90
5806;DHT22;2929;50.810;8.342;2022-11-03T04:00:12;3.70;99.90
5806;DHT22;2929;50.810;8.342;2022-11-03T04:02:42;3.60;99.90
5806;DHT22;2929;50.810;8.342;2022-11-03T04:05:09;3.60;99.90
5806;DHT22;2929;50.810;8.342;2022-11-03T04:07:36;3.60;99.90
5806;DHT22;2929;50.810;8.342;2022-11-03T04:10:15;3.60;99.90
5806;DHT22;2929;50.810;8.342;2022-11-03T04:12:43;3.60;99.90
5806;DHT22;2929;50.810;8.342;2022-11-03T04:15:28;3.40;99.90
5806;DHT22;2929;50.810;8.342;2022-11-03T04:18:15;3.40;99.90
5806;DHT22;2929;50.810;8.342;2022-11-03T04:21:00;3.40;99.90
5806;DHT22;2929;50.810;8.342;2022-11-03T04:23:44;3.30;99.90
5806;DHT22;2929;50.810;8.342;2022-11-03T04:26:13;3.40;99.90
5806;DHT22;2929;50.810;8.342;2022-11-03T04:28:40;3.30;99.90
5806;DHT22;2929;50.810;8.342;2022-11-03T04:31:09;3.40;99.90
5806;DHT22;2929;50.810;8.342;2022-11-03T04:33:40;3.40;99.90
5806;DHT22;2929;50.810;8.342;2022-11-03T04:36:11;3.50;99.90
5806;DHT22;2929;50.810;8.342;2022-11-03T04:38:39;3.50;99.90
5806;DHT22;2929;50.810;8.342;2022-11-03T04:41:13;3.50;99.90
5806;DHT22;2929;50.810;8.342;2022-11-03T04:43:40;3.40;99.90
5806;DHT22;2929;50.810;8.342;2022-11-03T04:46:09;3.20;99.90
5806;DHT22;2929;50.810;8.342;2022-11-03T04:48:38;3.10;99.90
5806;DHT22;2929;50.810;8.342;2022-11-03T04:51:13;3.20;99.90
5806;DHT22;2929;50.810;8.342;2022-11-03T04:53:46;3.10;99.90
5806;DHT22;2929;50.810;8.342;2022-11-03T04:56:16;3.00;99.90
5806;DHT22;2929;50.810;8.342;2022-11-03T04:58:44;3.10;99.90
5806;DHT22;2929;50.810;8.342;2022-11-03T05:01:14;3.10;99.90
5806;DHT22;2929;50.810;8.342;2022-11-03T05:03:44;3.10;99.90
5806;DHT22;2929;50.810;8.342;2022-11-03T05:06:14;3.10;99.90
5806;DHT22;2929;50.810;8.342;2022-11-03T05:08:44;3.00;99.90
5806;DHT22;2929;50.810;8.342;2022-11-03T05:11:18;3.10;99.90
5806;DHT22;2929;50.810;8.342;2022-11-03T05:13:46;3.10;99.90
5806;DHT22;2929;50.810;8.342;2022-11-03T05:16:14;3.10;99.90
5806;DHT22;2929;50.810;8.342;2022-11-03T05:18:44;2.90;99.90
5806;DHT22;2929;50.810;8.342;2022-11-03T05:21:14;2.80;99.90
5806;DHT22;2929;50.810;8.342;2022-11-03T05:23:47;2.70;99.90
5806;DHT22;2929;50.810;8.342;2022-11-03T05:26:17;2.70;99.90
5806;DHT22;2929;50.810;8.342;2022-11-03T05:28:47;2.70;99.90
5806;DHT22;2929;50.810;8.342;2022-11-03T05:31:21;2.70;99.90
5806;DHT22;2929;50.810;8.342;2022-11-03T05:33:52;2.70;99.90
5806;DHT22;2929;50.810;8.342;2022-11-03T05:36:21;2.60;99.90
5806;DHT22;2929;50.810;8.342;2022-11-03T05:38:49;2.60;99.90
5806;DHT22;2929;50.810;8.342;2022-11-03T05:41:21;2.60;99.90
5806;DHT22;2929;50.810;8.342;2022-11-03T05:43:54;2.50;99.90
5806;DHT22;2929;50.810;8.342;2022-11-03T05:46:23;2.40;99.90
5806;DHT22;2929;50.810;8.342;2022-11-03T05:48:54;2.40;99.90
5806;DHT22;2929;50.810;8.342;2022-11-03T05:51:24;2.40;99.90
5806;DHT22;2929;50.810;8.342;2022-11-03T05:53:56;2.40;99.90
5806;DHT22;2929;50.810;8.342;2022-11-03T05:56:24;2.50;99.90
5806;DHT22;2929;50.810;8.342;2022-11-03T05:58:53;2.50;99.90
5806;DHT22;2929;50.810;8.342;2022-11-03T06:01:25;2.50;99.90
5806;DHT22;2929;50.810;8.342;2022-11-03T06:03:55;2.60;99.90
5806;DHT22;2929;50.810;8.342;2022-11-03T06:06:26;2.60;99.90
5806;DHT22;2929;50.810;8.342;2022-11-03T06:08:55;2.60;99.90
5806;DHT22;2929;50.810;8.342;2022-11-03T06:11:26;2.50;99.90
5806;DHT22;2929;50.810;8.342;2022-11-03T06:13:56;2.60;99.90
5806;DHT22;2929;50.810;8.342;2022-11-03T06:16:36;2.60;99.90
5806;DHT22;2929;50.810;8.342;2022-11-03T06:19:25;2.40;99.90
5806;DHT22;2929;50.810;8.342;2022-11-03T06:21:55;2.40;99.90
5806;DHT22;2929;50.810;8.342;2022-11-03T06:24:25;2.40;99.90
5806;DHT22;2929;50.810;8.342;2022-11-03T06:26:55;2.40;99.90
5806;DHT22;2929;50.810;8.342;2022-11-03T06:29:23;2.40;99.90
5806;DHT22;2929;50.810;8.342;2022-11-03T06:31:53;2.40;99.90
5806;DHT22;2929;50.810;8.342;2022-11-03T06:34:30;2.40;99.90
5806;DHT22;2929;50.810;8.342;2022-11-03T06:37:00;2.30;99.90
5806;DHT22;2929;50.810;8.342;2022-11-03T06:39:32;2.30;99.90
5806;DHT22;2929;50.810;8.342;2022-11-03T06:42:10;2.30;99.90
5806;DHT22;2929;50.810;8.342;2022-11-03T06:44:39;2.30;99.90
5806;DHT22;2929;50.810;8.342;2022-11-03T06:47:20;2.40;99.90
5806;DHT22;2929;50.810;8.342;2022-11-03T06:49:50;2.30;99.90
5806;DHT22;2929;50.810;8.342;2022-11-03T06:52:23;2.30;99.90
5806;DHT22;2929;50.810;8.342;2022-11-03T06:54:54;2.30;99.90
5806;DHT22;2929;50.810;8.342;2022-11-03T06:57:26;2.30;99.90
5806;DHT22;2929;50.810;8.342;2022-11-03T06:59:54;2.30;99.90
5806;DHT22;2929;50.810;8.342;2022-11-03T07:02:39;2.30;99.90
5806;DHT22;2929;50.810;8.342;2022-11-03T07:05:20;2.30;99.90
5806;DHT22;2929;50.810;8.342;2022-11-03T07:07:48;2.40;99.90
5806;DHT22;2929;50.810;8.342;2022-11-03T07:10:16;2.40;99.90
5806;DHT22;2929;50.810;8.342;2022-11-03T07:12:43;2.50;99.90
5806;DHT22;2929;50.810;8.342;2022-11-03T07:15:23;2.50;99.90
5806;DHT22;2929;50.810;8.342;2022-11-03T07:17:52;2.50;99.90
5806;DHT22;2929;50.810;8.342;2022-11-03T07:20:21;2.60;99.90
5806;DHT22;2929;50.810;8.342;2022-11-03T07:22:50;2.60;99.90
5806;DHT22;2929;50.810;8.342;2022-11-03T07:25:19;2.60;99.90
5806;DHT22;2929;50.810;8.342;2022-11-03T07:27:49;2.60;99.90
5806;DHT22;2929;50.810;8.342;2022-11-03T07:30:19;2.60;99.90
5806;DHT22;2929;50.810;8.342;2022-11-03T07:32:48;2.60;99.90
5806;DHT22;2929;50.810;8.342;2022-11-03T07:35:28;2.70;99.90
5806;DHT22;2929;50.810;8.342;2022-11-03T07:37:59;2.80;99.90
5806;DHT22;2929;50.810;8.342;2022-11-03T07:40:28;3.00;99.90
5806;DHT22;2929;50.810;8.342;2022-11-03T07:42:59;3.10;99.90
5806;DHT22;2929;50.810;8.342;2022-11-03T07:45:34;3.20;99.90
5806;DHT22;2929;50.810;8.342;2022-11-03T07:48:13;3.40;99.90
5806;DHT22;2929;50.810;8.342;2022-11-03T07:50:42;3.50;99.90
5806;DHT22;2929;50.810;8.342;2022-11-03T07:53:14;3.80;99.90
5806;DHT22;2929;50.810;8.342;2022-11-03T07:55:43;4.00;99.90
5806;DHT22;2929;50.810;8.342;2022-11-03T07:58:20;4.20;99.90
5806;DHT22;2929;50.810;8.342;2022-11-03T08:00:51;4.40;99.90
5806;DHT22;2929;50.810;8.342;2022-11-03T08:03:39;4.60;99.90
5806;DHT22;2929;50.810;8.342;2022-11-03T08:06:08;4.60;99.90
5806;DHT22;2929;50.810;8.342;2022-11-03T08:08:35;4.80;99.90
5806;DHT22;2929;50.810;8.342;2022-11-03T08:11:03;4.80;99.90
5806;DHT22;2929;50.810;8.342;2022-11-03T08:13:30;4.90;99.90
5806;DHT22;2929;50.810;8.342;2022-11-03T08:15:57;4.90;99.90
5806;DHT22;2929;50.810;8.342;2022-11-03T08:18:24;4.90;99.90
5806;DHT22;2929;50.810;8.342;2022-11-03T08:20:52;5.00;99.90
5806;DHT22;2929;50.810;8.342;2022-11-03T08:23:20;5.00;99.90
5806;DHT22;2929;50.810;8.342;2022-11-03T08:25:47;5.00;99.90
5806;DHT22;2929;50.810;8.342;2022-11-03T08:28:14;5.10;99.90
5806;DHT22;2929;50.810;8.342;2022-11-03T08:30:41;5.20;99.90
5806;DHT22;2929;50.810;8.342;2022-11-03T08:33:08;5.30;99.90
5806;DHT22;2929;50.810;8.342;2022-11-03T08:35:35;5.30;99.90
5806;DHT22;2929;50.810;8.342;2022-11-03T08:38:02;5.40;99.90
5806;DHT22;2929;50.810;8.342;2022-11-03T08:40:31;5.50;99.90
5806;DHT22;2929;50.810;8.342;2022-11-03T08:42:58;5.60;99.90
5806;DHT22;2929;50.810;8.342;2022-11-03T08:45:27;5.70;99.90
5806;DHT22;2929;50.810;8.342;2022-11-03T08:47:55;5.90;99.90
5806;DHT22;2929;50.810;8.342;2022-11-03T08:50:22;6.00;99.90
5806;DHT22;2929;50.810;8.342;2022-11-03T08:52:49;6.10;99.90
5806;DHT22;2929;50.810;8.342;2022-11-03T08:55:16;6.20;99.90
5806;DHT22;2929;50.810;8.342;2022-11-03T08:57:45;6.30;99.90
5806;DHT22;2929;50.810;8.342;2022-11-03T09:00:13;6.40;99.90
5806;DHT22;2929;50.810;8.342;2022-11-03T09:02:41;6.60;99.90
5806;DHT22;2929;50.810;8.342;2022-11-03T09:05:09;6.70;99.90
5806;DHT22;2929;50.810;8.342;2022-11-03T09:07:37;6.80;99.90
5806;DHT22;2929;50.810;8.342;2022-11-03T09:10:06;6.80;99.90
5806;DHT22;2929;50.810;8.342;2022-11-03T09:12:34;6.90;99.90
5806;DHT22;2929;50.810;8.342;2022-11-03T09:15:02;7.00;99.90
5806;DHT22;2929;50.810;8.342;2022-11-03T09:17:30;7.10;99.90
5806;DHT22;2929;50.810;8.342;2022-11-03T09:19:57;7.20;99.90
5806;DHT22;2929;50.810;8.342;2022-11-03T09:22:24;7.30;99.90
5806;DHT22;2929;50.810;8.342;2022-11-03T09:24:51;7.30;99.90
5806;DHT22;2929;50.810;8.342;2022-11-03T09:27:18;7.20;99.90
5806;DHT22;2929;50.810;8.342;2022-11-03T09:29:45;7.20;99.90
5806;DHT22;2929;50.810;8.342;2022-11-03T09:32:14;7.20;99.90
5806;DHT22;2929;50.810;8.342;2022-11-03T09:34:42;7.20;99.90
5806;DHT22;2929;50.810;8.342;2022-11-03T09:37:09;7.20;99.90
5806;DHT22;2929;50.810;8.342;2022-11-03T09:39:36;7.30;99.90
5806;DHT22;2929;50.810;8.342;2022-11-03T09:42:03;7.40;99.90
5806;DHT22;2929;50.810;8.342;2022-11-03T09:44:31;7.50;99.90
5806;DHT22;2929;50.810;8.342;2022-11-03T09:46:59;7.60;99.90
5806;DHT22;2929;50.810;8.342;2022-11-03T09:49:30;7.70;99.90
5806;DHT22;2929;50.810;8.342;2022-11-03T09:51:58;7.90;99.90
5806;DHT22;2929;50.810;8.342;2022-11-03T09:54:26;8.10;99.90
5806;DHT22;2929;50.810;8.342;2022-11-03T09:56:56;8.30;99.90
5806;DHT22;2929;50.810;8.342;2022-11-03T09:59:24;8.50;99.90
5806;DHT22;2929;50.810;8.342;2022-11-03T10:01:52;8.70;99.90
5806;DHT22;2929;50.810;8.342;2022-11-03T10:04:24;8.80;99.90
5806;DHT22;2929;50.810;8.342;2022-11-03T10:06:53;9.00;99.90
5806;DHT22;2929;50.810;8.342;2022-11-03T10:09:21;9.30;99.90
5806;DHT22;2929;50.810;8.342;2022-11-03T10:11:51;9.60;99.90
5806;DHT22;2929;50.810;8.342;2022-11-03T10:14:19;9.80;99.90
5806;DHT22;2929;50.810;8.342;2022-11-03T10:16:51;10.10;99.90
5806;DHT22;2929;50.810;8.342;2022-11-03T10:19:19;10.40;99.90
5806;DHT22;2929;50.810;8.342;2022-11-03T10:21:46;10.70;99.90
5806;DHT22;2929;50.810;8.342;2022-11-03T10:24:15;11.00;99.90
5806;DHT22;2929;50.810;8.342;2022-11-03T10:26:44;11.10;99.90
5806;DHT22;2929;50.810;8.342;2022-11-03T10:29:17;11.20;99.90
5806;DHT22;2929;50.810;8.342;2022-11-03T10:31:46;11.10;99.90
5806;DHT22;2929;50.810;8.342;2022-11-03T10:34:24;11.30;99.90
5806;DHT22;2929;50.810;8.342;2022-11-03T10:37:09;11.40;99.90
5806;DHT22;2929;50.810;8.342;2022-11-03T10:39:38;11.50;99.90
5806;DHT22;2929;50.810;8.342;2022-11-03T10:42:16;11.50;99.90
5806;DHT22;2929;50.810;8.342;2022-11-03T10:44:44;11.50;99.90
5806;DHT22;2929;50.810;8.342;2022-11-03T10:47:22;11.50;99.90
5806;DHT22;2929;50.810;8.342;2022-11-03T10:49:49;11.40;99.90
5806;DHT22;2929;50.810;8.342;2022-11-03T10:52:19;11.30;99.90
5806;DHT22;2929;50.810;8.342;2022-11-03T10:54:49;11.30;99.90
5806;DHT22;2929;50.810;8.342;2022-11-03T10:57:17;11.30;99.90
5806;DHT22;2929;50.810;8.342;2022-11-03T10:59:46;11.30;99.90
5806;DHT22;2929;50.810;8.342;2022-11-03T11:02:17;11.40;99.90
5806;DHT22;2929;50.810;8.342;2022-11-03T11:04:46;11.40;99.90
5806;DHT22;2929;50.810;8.342;2022-11-03T11:07:24;11.40;99.90
5806;DHT22;2929;50.810;8.342;2022-11-03T11:09:53;11.50;99.90
5806;DHT22;2929;50.810;8.342;2022-11-03T11:12:22;11.50;99.90
5806;DHT22;2929;50.810;8.342;2022-11-03T11:14:55;11.50;99.90
5806;DHT22;2929;50.810;8.342;2022-11-03T11:17:42;11.50;99.90
5806;DHT22;2929;50.810;8.342;2022-11-03T11:20:25;11.50;99.90
5806;DHT22;2929;50.810;8.342;2022-11-03T11:22:54;11.50;99.90
5806;DHT22;2929;50.810;8.342;2022-11-03T11:26:04;11.60;99.90
5806;DHT22;2929;50.810;8.342;2022-11-03T11:28:31;11.60;99.90
5806;DHT22;2929;50.810;8.342;2022-11-03T11:30:58;11.70;99.90
5806;DHT22;2929;50.810;8.342;2022-11-03T11:33:27;11.70;99.90
5806;DHT22;2929;50.810;8.342;2022-11-03T11:36:19;11.80;99.90
5806;DHT22;2929;50.810;8.342;2022-11-03T11:39:11;11.70;99.90
5806;DHT22;2929;50.810;8.342;2022-11-03T11:42:08;11.70;99.90
5806;DHT22;2929;50.810;8.342;2022-11-03T11:44:55;11.70;99.90
5806;DHT22;2929;50.810;8.342;2022-11-03T11:47:47;11.70;99.90
5806;DHT22;2929;50.810;8.342;2022-11-03T11:50:35;11.80;99.90
5806;DHT22;2929;50.810;8.342;2022-11-03T11:53:17;11.70;99.90
5806;DHT22;2929;50.810;8.342;2022-11-03T11:55:51;11.70;99.90
5806;DHT22;2929;50.810;8.342;2022-11-03T11:58:28;11.60;99.90
5806;DHT22;2929;50.810;8.342;2022-11-03T12:00:59;11.60;99.90
5806;DHT22;2929;50.810;8.342;2022-11-03T12:03:33;11.50;99.90
5806;DHT22;2929;50.810;8.342;2022-11-03T12:06:02;11.50;99.90
5806;DHT22;2929;50.810;8.342;2022-11-03T12:08:30;11.40;99.90
5806;DHT22;2929;50.810;8.342;2022-11-03T12:10:59;11.40;99.90
5806;DHT22;2929;50.810;8.342;2022-11-03T12:13:40;11.40;99.90
5806;DHT22;2929;50.810;8.342;2022-11-03T12:16:08;11.30;99.90
5806;DHT22;2929;50.810;8.342;2022-11-03T12:18:36;11.30;99.90
5806;DHT22;2929;50.810;8.342;2022-11-03T12:21:05;11.40;99.90
5806;DHT22;2929;50.810;8.342;2022-11-03T12:23:34;11.40;99.90
5806;DHT22;2929;50.810;8.342;2022-11-03T12:26:02;11.40;99.90
5806;DHT22;2929;50.810;8.342;2022-11-03T12:28:31;11.40;99.90
5806;DHT22;2929;50.810;8.342;2022-11-03T12:31:00;11.40;99.90
5806;DHT22;2929;50.810;8.342;2022-11-03T12:33:27;11.30;99.90
5806;DHT22;2929;50.810;8.342;2022-11-03T12:35:55;11.30;99.90
5806;DHT22;2929;50.810;8.342;2022-11-03T12:38:22;11.30;99.90
5806;DHT22;2929;50.810;8.342;2022-11-03T12:40:50;11.40;99.90
5806;DHT22;2929;50.810;8.342;2022-11-03T12:43:18;11.50;99.90
5806;DHT22;2929;50.810;8.342;2022-11-03T12:45:46;11.60;99.90
5806;DHT22;2929;50.810;8.342;2022-11-03T12:48:14;11.60;99.90
5806;DHT22;2929;50.810;8.342;2022-11-03T12:50:41;11.70;99.90
5806;DHT22;2929;50.810;8.342;2022-11-03T12:53:08;11.70;99.90
5806;DHT22;2929;50.810;8.342;2022-11-03T12:55:35;11.60;99.90
5806;DHT22;2929;50.810;8.342;2022-11-03T12:58:03;11.60;99.90
5806;DHT22;2929;50.810;8.342;2022-11-03T13:00:30;11.50;99.90
5806;DHT22;2929;50.810;8.342;2022-11-03T13:02:57;11.40;99.90
5806;DHT22;2929;50.810;8.342;2022-11-03T13:05:26;11.40;99.90
5806;DHT22;2929;50.810;8.342;2022-11-03T13:07:53;11.30;99.90
5806;DHT22;2929;50.810;8.342;2022-11-03T13:10:20;11.20;99.90
5806;DHT22;2929;50.810;8.342;2022-11-03T13:12:47;11.20;99.90
5806;DHT22;2929;50.810;8.342;2022-11-03T13:15:14;11.20;99.90
5806;DHT22;2929;50.810;8.342;2022-11-03T13:17:42;11.10;99.90
5806;DHT22;2929;50.810;8.342;2022-11-03T13:20:10;11.10;99.90
5806;DHT22;2929;50.810;8.342;2022-11-03T13:22:41;11.20;99.90
5806;DHT22;2929;50.810;8.342;2022-11-03T13:25:08;11.10;99.90
5806;DHT22;2929;50.810;8.342;2022-11-03T13:27:35;11.00;99.90
5806;DHT22;2929;50.810;8.342;2022-11-03T13:30:03;11.00;99.90
5806;DHT22;2929;50.810;8.342;2022-11-03T13:32:32;11.00;99.90
5806;DHT22;2929;50.810;8.342;2022-11-03T13:34:59;11.10;99.90
5806;DHT22;2929;50.810;8.342;2022-11-03T13:37:26;11.00;99.90
5806;DHT22;2929;50.810;8.342;2022-11-03T13:39:54;11.00;99.90
5806;DHT22;2929;50.810;8.342;2022-11-03T13:42:22;11.00;99.90
5806;DHT22;2929;50.810;8.342;2022-11-03T13:44:49;11.00;99.90
5806;DHT22;2929;50.810;8.342;2022-11-03T13:47:16;11.00;99.90
5806;DHT22;2929;50.810;8.342;2022-11-03T13:49:43;10.90;99.90
5806;DHT22;2929;50.810;8.342;2022-11-03T13:52:10;10.90;99.90
5806;DHT22;2929;50.810;8.342;2022-11-03T13:54:38;10.90;99.90
5806;DHT22;2929;50.810;8.342;2022-11-03T13:57:06;10.90;99.90
5806;DHT22;2929;50.810;8.342;2022-11-03T13:59:33;10.90;99.90
5806;DHT22;2929;50.810;8.342;2022-11-03T14:02:00;10.90;99.90
5806;DHT22;2929;50.810;8.342;2022-11-03T14:04:28;10.80;99.90
5806;DHT22;2929;50.810;8.342;2022-11-03T14:06:55;10.80;99.90
5806;DHT22;2929;50.810;8.342;2022-11-03T14:09:22;10.80;99.90
5806;DHT22;2929;50.810;8.342;2022-11-03T14:11:49;10.80;99.90
5806;DHT22;2929;50.810;8.342;2022-11-03T14:14:35;10.80;99.90
5806;DHT22;2929;50.810;8.342;2022-11-03T14:17:02;10.80;99.90
5806;DHT22;2929;50.810;8.342;2022-11-03T14:19:29;10.70;99.90
5806;DHT22;2929;50.810;8.342;2022-11-03T14:21:57;10.80;99.90
5806;DHT22;2929;50.810;8.342;2022-11-03T14:24:24;10.70;99.90
5806;DHT22;2929;50.810;8.342;2022-11-03T14:26:51;10.70;99.90
5806;DHT22;2929;50.810;8.342;2022-11-03T14:29:18;10.70;99.90
5806;DHT22;2929;50.810;8.342;2022-11-03T14:31:47;10.60;99.90
5806;DHT22;2929;50.810;8.342;2022-11-03T14:34:14;10.60;99.90
5806;DHT22;2929;50.810;8.342;2022-11-03T14:36:41;10.60;99.90
5806;DHT22;2929;50.810;8.342;2022-11-03T14:39:08;10.50;99.90
5806;DHT22;2929;50.810;8.342;2022-11-03T14:41:35;10.50;99.90
5806;DHT22;2929;50.810;8.342;2022-11-03T14:44:20;10.50;99.90
5806;DHT22;2929;50.810;8.342;2022-11-03T14:46:48;10.50;99.90
5806;DHT22;2929;50.810;8.342;2022-11-03T14:49:15;10.50;99.90
5806;DHT22;2929;50.810;8.342;2022-11-03T14:51:42;10.40;99.90
5806;DHT22;2929;50.810;8.342;2022-11-03T14:54:10;10.50;99.90
5806;DHT22;2929;50.810;8.342;2022-11-03T14:56:37;10.40;99.90
5806;DHT22;2929;50.810;8.342;2022-11-03T14:59:04;10.40;99.90
5806;DHT22;2929;50.810;8.342;2022-11-03T15:01:31;10.40;99.90
5806;DHT22;2929;50.810;8.342;2022-11-03T15:03:59;10.40;99.90
5806;DHT22;2929;50.810;8.342;2022-11-03T15:06:27;10.30;99.90
5806;DHT22;2929;50.810;8.342;2022-11-03T15:08:54;10.30;99.90
5806;DHT22;2929;50.810;8.342;2022-11-03T15:11:21;10.30;99.90
5806;DHT22;2929;50.810;8.342;2022-11-03T15:13:48;10.30;99.90
5806;DHT22;2929;50.810;8.342;2022-11-03T15:16:15;10.30;99.90
5806;DHT22;2929;50.810;8.342;2022-11-03T15:18:42;10.30;99.90
5806;DHT22;2929;50.810;8.342;2022-11-03T15:21:11;10.30;99.90
5806;DHT22;2929;50.810;8.342;2022-11-03T15:23:38;10.30;99.90
5806;DHT22;2929;50.810;8.342;2022-11-03T15:26:05;10.20;99.90
5806;DHT22;2929;50.810;8.342;2022-11-03T15:28:33;10.20;99.90
5806;DHT22;2929;50.810;8.342;2022-11-03T15:31:00;10.20;99.90
5806;DHT22;2929;50.810;8.342;2022-11-03T15:33:27;10.20;99.90
5806;DHT22;2929;50.810;8.342;2022-11-03T15:35:55;10.20;99.90
5806;DHT22;2929;50.810;8.342;2022-11-03T15:38:23;10.10;99.90
5806;DHT22;2929;50.810;8.342;2022-11-03T15:40:50;10.10;99.90
5806;DHT22;2929;50.810;8.342;2022-11-03T15:43:18;10.10;99.90
5806;DHT22;2929;50.810;8.342;2022-11-03T15:45:45;10.00;99.90
5806;DHT22;2929;50.810;8.342;2022-11-03T15:48:13;10.10;99.90
5806;DHT22;2929;50.810;8.342;2022-11-03T15:50:40;10.10;99.90
5806;DHT22;2929;50.810;8.342;2022-11-03T15:53:07;10.20;99.90
5806;DHT22;2929;50.810;8.342;2022-11-03T15:55:36;10.10;99.90
5806;DHT22;2929;50.810;8.342;2022-11-03T15:58:03;10.30;99.90
5806;DHT22;2929;50.810;8.342;2022-11-03T16:00:30;10.20;99.90
5806;DHT22;2929;50.810;8.342;2022-11-03T16:02:58;10.10;99.90
5806;DHT22;2929;50.810;8.342;2022-11-03T16:05:25;10.00;99.90
5806;DHT22;2929;50.810;8.342;2022-11-03T16:07:52;10.00;99.90
5806;DHT22;2929;50.810;8.342;2022-11-03T16:10:20;10.10;99.90
5806;DHT22;2929;50.810;8.342;2022-11-03T16:12:49;10.10;99.90
5806;DHT22;2929;50.810;8.342;2022-11-03T16:15:17;10.10;99.90
5806;DHT22;2929;50.810;8.342;2022-11-03T16:17:44;10.10;99.90
5806;DHT22;2929;50.810;8.342;2022-11-03T16:20:12;10.10;99.90
5806;DHT22;2929;50.810;8.342;2022-11-03T16:22:39;10.10;99.90
5806;DHT22;2929;50.810;8.342;2022-11-03T16:25:07;10.10;99.90
5806;DHT22;2929;50.810;8.342;2022-11-03T16:27:34;10.00;99.90
5806;DHT22;2929;50.810;8.342;2022-11-03T16:30:03;10.00;99.90
5806;DHT22;2929;50.810;8.342;2022-11-03T16:32:30;9.90;99.90
5806;DHT22;2929;50.810;8.342;2022-11-03T16:34:57;9.90;99.90